createdAt,value
2018-09-19T00:01:47.382Z,101031.95
2018-09-19T00:04:15.586Z,101028.95
2018-09-19T00:06:43.754Z,101025.22
2018-09-19T00:09:12.482Z,101032.66
2018-09-19T00:11:40.943Z,101031.34
2018-09-19T00:14:13.552Z,101033.14
2018-09-19T00:16:41.680Z,101031.23
2018-09-19T00:19:09.790Z,101046.83
2018-09-19T00:21:37.940Z,101039.41
2018-09-19T00:24:06.097Z,101035.19
2018-09-19T00:26:34.242Z,101042.78
2018-09-19T00:29:02.386Z,101035.65
2018-09-19T00:31:30.466Z,101032.06
2018-09-19T00:33:58.624Z,101031.48
2018-09-19T00:36:26.773Z,101026.27
2018-09-19T00:38:54.895Z,101030.54
2018-09-19T00:41:23.031Z,101037.23
2018-09-19T00:43:51.157Z,101046.78
2018-09-19T00:46:19.264Z,101046.52
2018-09-19T00:48:47.445Z,101049.16
2018-09-19T00:51:15.628Z,101046.94
2018-09-19T00:53:43.904Z,101051.73
2018-09-19T00:56:12.020Z,101052.42
2018-09-19T00:58:40.256Z,101050.63
2018-09-19T01:01:08.419Z,101056.16
2018-09-19T01:03:36.570Z,101059.38
2018-09-19T01:06:04.732Z,101055.90
2018-09-19T01:08:32.859Z,101056.47
2018-09-19T01:11:00.980Z,101072.97
2018-09-19T01:13:29.137Z,101064.81
2018-09-19T01:15:57.269Z,101075.23
2018-09-19T01:18:25.379Z,101074.36
2018-09-19T01:20:53.548Z,101073.83
2018-09-19T01:23:21.693Z,101076.50
2018-09-19T01:25:49.828Z,101072.92
2018-09-19T01:28:18.019Z,101076.67
2018-09-19T01:30:46.136Z,101081.56
2018-09-19T01:33:14.266Z,101081.94
2018-09-19T01:35:42.436Z,101082.72
2018-09-19T01:38:10.546Z,101085.25
2018-09-19T01:40:38.676Z,101085.89
2018-09-19T01:43:06.797Z,101097.38
2018-09-19T01:45:34.917Z,101096.43
2018-09-19T01:48:03.047Z,101101.91
2018-09-19T01:50:31.213Z,101107.54
2018-09-19T01:52:59.349Z,101106.43
2018-09-19T01:55:27.470Z,101104.23
2018-09-19T01:57:55.598Z,101113.62
2018-09-19T02:00:23.728Z,101117.41
2018-09-19T02:02:51.845Z,101106.33
2018-09-19T02:05:19.978Z,101111.42
2018-09-19T02:07:48.084Z,101117.23
2018-09-19T02:10:16.224Z,101123.08
2018-09-19T02:12:44.342Z,101123.27
2018-09-19T02:15:12.512Z,101126.16
2018-09-19T02:17:40.604Z,101123.81
2018-09-19T02:20:08.717Z,101120.35
2018-09-19T02:22:36.817Z,101120.55
2018-09-19T02:25:04.946Z,101128.75
2018-09-19T02:27:33.057Z,101123.94
2018-09-19T02:30:01.192Z,101123.73
2018-09-19T02:32:29.312Z,101124.80
2018-09-19T02:34:57.469Z,101131.01
2018-09-19T02:37:25.580Z,101133.34
2018-09-19T02:39:53.740Z,101133.25
2018-09-19T02:42:21.906Z,101131.14
2018-09-19T02:44:50.044Z,101131.55
2018-09-19T02:47:18.197Z,101127.91
2018-09-19T02:49:46.308Z,101129.45
2018-09-19T02:52:14.448Z,101139.28
2018-09-19T02:54:42.597Z,101142.09
2018-09-19T02:57:10.674Z,101141.89
2018-09-19T02:59:38.813Z,101144.82
2018-09-19T03:02:06.954Z,101148.38
2018-09-19T03:04:35.074Z,101144.12
2018-09-19T03:07:03.213Z,101147.51
2018-09-19T03:09:31.305Z,101145.86
2018-09-19T03:11:59.416Z,101148.59
2018-09-19T03:14:27.577Z,101151.03
2018-09-19T03:16:55.686Z,101148.37
2018-09-19T03:19:23.804Z,101151.17
2018-09-19T03:21:52.032Z,101148.92
2018-09-19T03:24:20.197Z,101149.44
2018-09-19T03:26:48.351Z,101147.88
2018-09-19T03:29:16.480Z,101152.67
2018-09-19T03:31:44.592Z,101149.89
2018-09-19T03:34:12.698Z,101144.45
2018-09-19T03:36:40.801Z,101146.43
2018-09-19T03:39:10.051Z,101153.06
2018-09-19T03:41:38.633Z,101150.23
2018-09-19T03:44:06.931Z,101159.17
2018-09-19T03:46:35.505Z,101157.86
2018-09-19T03:49:03.650Z,101160.41
2018-09-19T03:51:31.877Z,101155.13
2018-09-19T03:54:00.039Z,101148.45
2018-09-19T03:56:28.192Z,101145.92
2018-09-19T03:58:56.329Z,101138.42
2018-09-19T04:01:24.577Z,101141.19
2018-09-19T04:03:52.733Z,101137.80
2018-09-19T04:06:20.882Z,101145.98
2018-09-19T04:08:49.233Z,101141.00
2018-09-19T04:11:17.416Z,101146.17
2018-09-19T04:13:45.541Z,101151.58
2018-09-19T04:16:13.694Z,101152.37
2018-09-19T04:18:41.850Z,101156.70
2018-09-19T04:21:10.027Z,101159.23
2018-09-19T04:23:39.465Z,101157.55
2018-09-19T04:26:07.617Z,101159.05
2018-09-19T04:28:35.785Z,101156.33
2018-09-19T04:31:03.924Z,101152.20
2018-09-19T04:33:32.038Z,101158.03
2018-09-19T04:36:00.164Z,101158.78
2018-09-19T04:38:28.305Z,101162.25
2018-09-19T04:40:56.464Z,101167.04
2018-09-19T04:43:24.592Z,101164.50
2018-09-19T04:45:52.718Z,101168.83
2018-09-19T04:48:20.901Z,101173.42
2018-09-19T04:50:51.157Z,101174.84
2018-09-19T04:53:19.452Z,101175.13
2018-09-19T04:55:47.582Z,101173.91
2018-09-19T04:58:15.773Z,101183.21
2018-09-19T05:00:43.982Z,101177.77
2018-09-19T05:03:12.150Z,101180.39
2018-09-19T05:05:40.355Z,101187.44
2018-09-19T05:08:08.474Z,101179.91
2018-09-19T05:10:36.694Z,101176.06
2018-09-19T05:13:04.838Z,101185.08
2018-09-19T05:15:33.072Z,101191.19
2018-09-19T05:18:01.215Z,101192.47
2018-09-19T05:20:29.345Z,101194.23
2018-09-19T05:22:57.505Z,101199.36
2018-09-19T05:25:25.838Z,101199.94
2018-09-19T05:27:53.992Z,101204.72
2018-09-19T05:30:22.143Z,101204.89
2018-09-19T05:32:50.355Z,101211.33
2018-09-19T05:35:18.497Z,101208.03
2018-09-19T05:37:46.688Z,101208.95
2018-09-19T05:40:14.827Z,101209.41
2018-09-19T05:42:43.002Z,101209.55
2018-09-19T05:45:11.799Z,101203.21
2018-09-19T05:47:39.922Z,101211.03
2018-09-19T05:50:08.122Z,101218.12
2018-09-19T05:52:36.317Z,101212.61
2018-09-19T05:55:04.490Z,101215.16
2018-09-19T05:57:32.660Z,101210.17
2018-09-19T06:00:00.815Z,101212.03
2018-09-19T06:02:28.988Z,101207.14
2018-09-19T06:04:57.125Z,101208.81
2018-09-19T06:07:25.206Z,101197.94
2018-09-19T06:09:53.319Z,101200.73
2018-09-19T06:12:21.481Z,101195.52
2018-09-19T06:14:49.647Z,101188.66
2018-09-19T06:17:17.756Z,101188.88
2018-09-19T06:19:45.924Z,101191.73
2018-09-19T06:22:14.070Z,101188.19
2018-09-19T06:24:42.231Z,101192.95
2018-09-19T06:27:10.372Z,101189.95
2018-09-19T06:29:38.480Z,101190.20
2018-09-19T06:32:06.741Z,101185.72
2018-09-19T06:34:34.861Z,101194.28
2018-09-19T06:37:03.033Z,101200.98
2018-09-19T06:39:31.102Z,101190.72
2018-09-19T06:41:59.272Z,101194.80
2018-09-19T06:44:27.428Z,101189.33
2018-09-19T06:46:55.627Z,101197.84
2018-09-19T06:49:23.686Z,101196.19
2018-09-19T06:51:51.885Z,101206.60
2018-09-19T06:54:19.997Z,101207.14
2018-09-19T06:56:48.177Z,101207.13
2018-09-19T06:59:16.279Z,101212.08
2018-09-19T07:01:44.394Z,101216.45
2018-09-19T07:04:12.837Z,101205.88
2018-09-19T07:06:40.967Z,101208.70
2018-09-19T07:09:10.005Z,101202.34
2018-09-19T07:11:38.153Z,101205.94
2018-09-19T07:14:06.675Z,101201.84
2018-09-19T07:16:34.799Z,101200.02
2018-09-19T07:19:02.983Z,101205.27
2018-09-19T07:21:31.092Z,101198.05
2018-09-19T07:23:59.231Z,101200.52
2018-09-19T07:26:27.347Z,101202.94
2018-09-19T07:28:55.507Z,101203.05
2018-09-19T07:31:23.627Z,101208.94
2018-09-19T07:33:51.743Z,101206.97
2018-09-19T07:36:19.843Z,101215.30
2018-09-19T07:38:47.957Z,101212.31
2018-09-19T07:41:16.088Z,101199.33
2018-09-19T07:43:44.192Z,101208.36
2018-09-19T07:46:12.310Z,101207.52
2018-09-19T07:48:40.439Z,101207.16
2018-09-19T07:51:08.546Z,101208.70
2018-09-19T07:53:36.654Z,101204.13
2018-09-19T07:56:05.214Z,101203.89
2018-09-19T07:58:33.484Z,101206.27
2018-09-19T08:01:01.667Z,101198.20
2018-09-19T08:03:29.717Z,101206.48
2018-09-19T08:05:57.876Z,101203.31
2018-09-19T08:08:25.985Z,101206.45
2018-09-19T08:10:54.264Z,101211.92
2018-09-19T08:13:22.401Z,101209.80
2018-09-19T08:15:50.549Z,101219.27
2018-09-19T08:18:18.633Z,101211.27
2018-09-19T08:20:46.753Z,101217.58
2018-09-19T08:23:14.883Z,101225.36
2018-09-19T08:25:43.048Z,101216.20
2018-09-19T08:28:11.193Z,101229.87
2018-09-19T08:30:39.301Z,101226.83
2018-09-19T08:33:07.421Z,101229.62
2018-09-19T08:35:35.523Z,101223.57
2018-09-19T08:38:03.639Z,101229.81
2018-09-19T08:40:31.893Z,101226.72
2018-09-19T08:43:00.048Z,101221.73
2018-09-19T08:45:28.218Z,101229.20
2018-09-19T08:47:56.366Z,101234.92
2018-09-19T08:50:24.526Z,101232.14
2018-09-19T08:52:52.653Z,101230.09
2018-09-19T08:55:20.777Z,101235.92
2018-09-19T08:57:48.937Z,101238.23
2018-09-19T09:00:17.089Z,101226.28
2018-09-19T09:02:45.201Z,101234.34
2018-09-19T09:05:13.392Z,101231.73
2018-09-19T09:07:41.472Z,101231.52
2018-09-19T09:10:09.619Z,101219.52
2018-09-19T09:12:37.979Z,101223.20
2018-09-19T09:15:06.133Z,101218.26
2018-09-19T09:17:34.281Z,101218.21
2018-09-19T09:20:02.473Z,101220.72
2018-09-19T09:22:30.576Z,101218.77
2018-09-19T09:24:58.843Z,101222.13
2018-09-19T09:27:27.067Z,101216.77
2018-09-19T09:29:55.069Z,101221.29
2018-09-19T09:32:23.152Z,101234.28
2018-09-19T09:34:51.265Z,101233.30
2018-09-19T09:37:19.379Z,101236.10
2018-09-19T09:39:47.497Z,101235.95
2018-09-19T09:42:15.601Z,101232.09
2018-09-19T09:44:43.682Z,101227.23
2018-09-19T09:47:11.805Z,101226.91
2018-09-19T09:49:39.937Z,101228.36
2018-09-19T09:52:08.074Z,101238.95
2018-09-19T09:54:36.374Z,101231.23
2018-09-19T09:57:04.768Z,101240.64
2018-09-19T09:59:32.891Z,101237.62
2018-09-19T10:02:01.093Z,101239.73
2018-09-19T10:04:29.238Z,101230.93
2018-09-19T10:06:57.342Z,101229.15
2018-09-19T10:09:25.471Z,101228.95
2018-09-19T10:11:53.553Z,101222.44
2018-09-19T10:14:21.654Z,101219.15
2018-09-19T10:16:49.753Z,101216.87
2018-09-19T10:19:17.904Z,101217.00
2018-09-19T10:21:45.996Z,101220.02
2018-09-19T10:24:14.148Z,101219.56
2018-09-19T10:26:42.292Z,101223.95
2018-09-19T10:29:10.387Z,101218.69
2018-09-19T10:31:38.530Z,101210.13
2018-09-19T10:34:06.698Z,101215.19
2018-09-19T10:36:34.819Z,101217.56
2018-09-19T10:39:03.013Z,101227.69
2018-09-19T10:41:31.133Z,101220.32
2018-09-19T10:43:59.281Z,101221.52
2018-09-19T10:46:27.359Z,101222.69
2018-09-19T10:48:55.486Z,101226.27
2018-09-19T10:51:23.613Z,101218.25
2018-09-19T10:53:51.708Z,101214.90
2018-09-19T10:56:19.833Z,101198.99
2018-09-19T10:58:47.956Z,101190.11
2018-09-19T11:01:16.080Z,101183.70
2018-09-19T11:03:44.203Z,101175.16
2018-09-19T11:06:12.418Z,101175.47
2018-09-19T11:08:40.541Z,101167.20
2018-09-19T11:11:09.027Z,101171.56
2018-09-19T11:13:37.141Z,101173.92
2018-09-19T11:16:05.397Z,101174.80
2018-09-19T11:18:33.501Z,101175.58
2018-09-19T11:21:01.633Z,101179.86
2018-09-19T11:23:29.753Z,101176.41
2018-09-19T11:25:57.893Z,101189.59
2018-09-19T11:28:25.995Z,101197.82
2018-09-19T11:30:54.925Z,101199.89
2018-09-19T11:33:22.997Z,101201.47
2018-09-19T11:35:51.080Z,101194.89
2018-09-19T11:38:19.195Z,101189.85
2018-09-19T11:40:47.310Z,101194.47
2018-09-19T11:43:15.452Z,101193.56
2018-09-19T11:45:43.513Z,101185.26
2018-09-19T11:48:11.591Z,101164.45
2018-09-19T11:50:39.681Z,101156.43
2018-09-19T11:53:13.167Z,101155.63
2018-09-19T11:55:41.292Z,101147.80
2018-09-19T11:58:09.463Z,101152.52
2018-09-19T12:00:37.522Z,101148.32
2018-09-19T12:03:05.613Z,101129.75
2018-09-19T12:05:33.709Z,101114.52
2018-09-19T12:08:01.890Z,101100.17
2018-09-19T12:10:29.985Z,101100.66
2018-09-19T12:12:58.092Z,101092.80
2018-09-19T12:15:26.291Z,101105.83
2018-09-19T12:17:54.376Z,101097.98
2018-09-19T12:20:22.497Z,101106.03
2018-09-19T12:22:50.599Z,101095.85
2018-09-19T12:25:18.669Z,101089.50
2018-09-19T12:27:46.758Z,101085.09
2018-09-19T12:30:15.014Z,101089.94
2018-09-19T12:32:43.127Z,101081.70
2018-09-19T12:35:11.283Z,101083.67
2018-09-19T12:37:39.418Z,101081.16
2018-09-19T12:40:07.496Z,101077.47
2018-09-19T12:42:35.594Z,101074.16
2018-09-19T12:45:03.677Z,101076.83
2018-09-19T12:47:31.764Z,101080.56
2018-09-19T12:49:59.846Z,101076.67
2018-09-19T12:52:27.962Z,101085.03
2018-09-19T12:54:56.043Z,101083.48
2018-09-19T12:57:24.144Z,101076.45
2018-09-19T12:59:52.266Z,101086.67
2018-09-19T13:02:20.368Z,101079.46
2018-09-19T13:04:48.464Z,101080.66
2018-09-19T13:07:16.544Z,101084.27
2018-09-19T13:09:44.632Z,101092.70
2018-09-19T13:12:12.728Z,101085.66
2018-09-19T13:14:40.822Z,101087.69
2018-09-19T13:17:08.925Z,101084.83
2018-09-19T13:19:37.020Z,101077.14
2018-09-19T13:22:05.141Z,101072.34
2018-09-19T13:24:33.219Z,101065.22
2018-09-19T13:27:01.300Z,101060.22
2018-09-19T13:29:29.401Z,101058.94
2018-09-19T13:31:57.501Z,101051.78
2018-09-19T13:34:25.573Z,101062.23
2018-09-19T13:36:53.659Z,101051.38
2018-09-19T13:39:21.768Z,101044.68
2018-09-19T13:41:49.869Z,101042.33
2018-09-19T13:44:18.045Z,101041.06
2018-09-19T13:46:46.147Z,101027.91
2018-09-19T13:49:26.819Z,101037.95
2018-09-19T13:51:55.071Z,101030.66
2018-09-19T13:54:23.161Z,101031.02
2018-09-19T13:56:51.264Z,101030.44
2018-09-19T13:59:19.371Z,101027.06
2018-09-19T14:01:47.468Z,101028.38
2018-09-19T14:04:15.645Z,101022.83
2018-09-19T14:06:43.694Z,101020.02
2018-09-19T14:09:11.776Z,101028.09
2018-09-19T14:11:39.933Z,101024.86
2018-09-19T14:14:07.988Z,101010.00
2018-09-19T14:16:36.094Z,101017.52
2018-09-19T14:19:04.210Z,101014.72
2018-09-19T14:21:32.302Z,101014.73
2018-09-19T14:24:00.376Z,101020.13
2018-09-19T14:26:28.488Z,101001.62
2018-09-19T14:28:56.688Z,100998.19
2018-09-19T14:31:24.789Z,101003.09
2018-09-19T14:33:52.911Z,101002.11
2018-09-19T14:36:21.017Z,100993.47
2018-09-19T14:38:49.114Z,100999.59
2018-09-19T14:41:17.229Z,100988.45
2018-09-19T14:43:45.307Z,100989.84
2018-09-19T14:46:13.415Z,100995.59
2018-09-19T14:48:41.604Z,100983.09
2018-09-19T14:51:09.627Z,100983.83
2018-09-19T14:53:37.704Z,100983.83
2018-09-19T14:56:05.807Z,100976.77
2018-09-19T14:58:33.971Z,100972.19
2018-09-19T15:01:02.077Z,100981.25
2018-09-19T15:03:30.168Z,100976.89
2018-09-19T15:05:58.308Z,100978.59
2018-09-19T15:08:26.438Z,100964.66
2018-09-19T15:10:54.561Z,100974.72
2018-09-19T15:13:22.688Z,100973.75
2018-09-19T15:15:50.788Z,100973.66
2018-09-19T15:18:18.899Z,100968.27
2018-09-19T15:20:47.017Z,100961.75
2018-09-19T15:23:15.240Z,100961.73
2018-09-19T15:25:43.371Z,100952.61
2018-09-19T15:28:11.481Z,100957.92
2018-09-19T15:30:39.594Z,100953.86
2018-09-19T15:33:07.709Z,100954.75
2018-09-19T15:35:35.838Z,100957.05
2018-09-19T15:38:03.971Z,100950.68
2018-09-19T15:40:32.104Z,100948.00
2018-09-19T15:43:00.224Z,100947.78
2018-09-19T15:45:28.361Z,100939.02
2018-09-19T15:47:56.527Z,100938.02
2018-09-19T15:50:24.627Z,100937.19
2018-09-19T15:52:52.759Z,100938.91
2018-09-19T15:55:20.964Z,100928.77
2018-09-19T15:57:49.109Z,100931.59
2018-09-19T16:00:17.869Z,100934.82
2018-09-19T16:02:46.032Z,100921.97
2018-09-19T16:05:14.164Z,100927.70
2018-09-19T16:07:42.294Z,100932.87
2018-09-19T16:10:10.398Z,100932.08
2018-09-19T16:12:38.524Z,100938.01
2018-09-19T16:15:06.653Z,100933.30
2018-09-19T16:17:34.778Z,100940.52
2018-09-19T16:20:02.906Z,100941.59
2018-09-19T16:22:31.005Z,100945.63
2018-09-19T16:24:59.117Z,100948.61
2018-09-19T16:27:27.232Z,100951.19
2018-09-19T16:29:55.359Z,100950.52
2018-09-19T16:32:23.478Z,100946.50
2018-09-19T16:34:51.616Z,100958.02
2018-09-19T16:37:19.737Z,100956.54
2018-09-19T16:39:47.845Z,100958.18
2018-09-19T16:42:16.024Z,100958.52
2018-09-19T16:44:44.119Z,100958.56
2018-09-19T16:47:12.257Z,100960.90
2018-09-19T16:49:40.397Z,100968.59
2018-09-19T16:52:08.527Z,100965.78
2018-09-19T16:54:36.659Z,100972.46
2018-09-19T16:57:04.820Z,100970.13
2018-09-19T16:59:32.969Z,100974.30
2018-09-19T17:02:01.121Z,100974.15
2018-09-19T17:04:29.252Z,100974.27
2018-09-19T17:06:57.432Z,100974.59
2018-09-19T17:09:25.584Z,100973.77
2018-09-19T17:11:53.706Z,100984.59
2018-09-19T17:14:21.879Z,100982.05
2018-09-19T17:16:50.017Z,100981.17
2018-09-19T17:19:18.141Z,100991.19
2018-09-19T17:21:46.243Z,100986.51
2018-09-19T17:24:14.372Z,100989.11
2018-09-19T17:26:42.470Z,100986.44
2018-09-19T17:29:10.581Z,100992.23
2018-09-19T17:31:38.703Z,100991.97
2018-09-19T17:34:06.861Z,100995.55
2018-09-19T17:36:35.016Z,101002.98
2018-09-19T17:39:03.936Z,100997.47
2018-09-19T17:41:32.048Z,101008.30
2018-09-19T17:44:00.184Z,101009.44
2018-09-19T17:46:28.312Z,101005.81
2018-09-19T17:48:56.442Z,101010.53
2018-09-19T17:51:24.581Z,101010.00
2018-09-19T17:53:52.699Z,101010.03
2018-09-19T17:56:20.805Z,101014.47
2018-09-19T17:58:48.988Z,101012.14
2018-09-19T18:01:17.129Z,101019.49
2018-09-19T18:03:45.264Z,101018.16
2018-09-19T18:06:13.846Z,101018.89
2018-09-19T18:08:42.017Z,101021.14
2018-09-19T18:11:10.175Z,101025.21
2018-09-19T18:13:39.448Z,101023.58
2018-09-19T18:16:07.555Z,101029.17
2018-09-19T18:18:35.690Z,101024.13
2018-09-19T18:21:03.816Z,101025.47
2018-09-19T18:23:31.958Z,101038.50
2018-09-19T18:26:00.062Z,101033.91
2018-09-19T18:28:28.173Z,101037.56
2018-09-19T18:30:56.274Z,101030.80
2018-09-19T18:33:24.392Z,101041.70
2018-09-19T18:35:52.509Z,101045.80
2018-09-19T18:38:20.644Z,101048.20
2018-09-19T18:40:48.739Z,101046.70
2018-09-19T18:43:16.846Z,101054.81
2018-09-19T18:45:45.030Z,101055.36
2018-09-19T18:48:13.174Z,101062.30
2018-09-19T18:50:41.303Z,101063.03
2018-09-19T18:53:09.587Z,101067.28
2018-09-19T18:55:37.720Z,101071.08
2018-09-19T18:58:05.845Z,101075.22
2018-09-19T19:00:33.968Z,101081.06
2018-09-19T19:03:02.072Z,101078.74
2018-09-19T19:05:30.302Z,101086.04
2018-09-19T19:07:58.499Z,101083.30
2018-09-19T19:10:26.648Z,101089.10
2018-09-19T19:12:54.762Z,101085.97
2018-09-19T19:15:22.895Z,101087.69
2018-09-19T19:17:51.061Z,101088.61
2018-09-19T19:20:19.228Z,101090.92
2018-09-19T19:22:47.383Z,101096.59
2018-09-19T19:25:15.544Z,101092.66
2018-09-19T19:27:43.720Z,101091.37
2018-09-19T19:30:11.989Z,101089.41
2018-09-19T19:32:40.054Z,101091.37
2018-09-19T19:35:08.185Z,101096.41
2018-09-19T19:37:36.381Z,101093.85
2018-09-19T19:40:04.538Z,101087.63
2018-09-19T19:42:32.690Z,101096.31
2018-09-19T19:45:00.826Z,101099.67
2018-09-19T19:47:29.021Z,101102.97
2018-09-19T19:49:57.151Z,101106.19
2018-09-19T19:52:25.287Z,101103.59
2018-09-19T19:54:53.441Z,101104.53
2018-09-19T19:57:21.568Z,101105.55
2018-09-19T19:59:49.696Z,101111.37
2018-09-19T20:02:17.857Z,101117.27
2018-09-19T20:04:46.013Z,101113.48
2018-09-19T20:07:14.178Z,101112.65
2018-09-19T20:09:42.398Z,101119.97
2018-09-19T20:12:10.520Z,101117.05
2018-09-19T20:14:38.743Z,101119.30
2018-09-19T20:17:06.847Z,101119.27
2018-09-19T20:19:35.029Z,101116.96
2018-09-19T20:22:03.157Z,101120.38
2018-09-19T20:24:31.296Z,101117.88
2018-09-19T20:26:59.461Z,101116.41
2018-09-19T20:29:27.613Z,101125.35
2018-09-19T20:31:55.766Z,101126.14
2018-09-19T20:34:23.919Z,101124.64
2018-09-19T20:36:52.097Z,101123.05
2018-09-19T20:39:20.196Z,101121.23
2018-09-19T20:41:48.375Z,101125.70
2018-09-19T20:44:16.577Z,101124.46
2018-09-19T20:46:44.800Z,101124.46
2018-09-19T20:49:12.918Z,101129.06
2018-09-19T20:51:41.057Z,101130.00
2018-09-19T20:54:09.191Z,101130.00
2018-09-19T20:56:37.353Z,101134.16
2018-09-19T20:59:05.968Z,101135.00
2018-09-19T21:01:34.111Z,101134.38
2018-09-19T21:04:02.406Z,101133.18
2018-09-19T21:06:30.539Z,101137.85
2018-09-19T21:08:58.689Z,101144.88
2018-09-19T21:11:26.850Z,101135.50
2018-09-19T21:13:55.450Z,101137.20
2018-09-19T21:16:23.692Z,101135.03
2018-09-19T21:18:51.906Z,101132.50
2018-09-19T21:21:20.094Z,101132.67
2018-09-19T21:23:48.263Z,101131.14
2018-09-19T21:26:16.387Z,101126.62
2018-09-19T21:28:44.541Z,101126.00
2018-09-19T21:31:12.682Z,101130.12
2018-09-19T21:33:41.909Z,101132.28
2018-09-19T21:36:10.047Z,101134.07
2018-09-19T21:38:38.162Z,101132.08
2018-09-19T21:41:06.624Z,101132.37
2018-09-19T21:43:34.801Z,101129.34
2018-09-19T21:46:02.944Z,101140.88
2018-09-19T21:48:31.111Z,101144.87
2018-09-19T21:50:59.356Z,101146.78
2018-09-19T21:53:27.489Z,101141.14
2018-09-19T21:55:55.636Z,101146.00
2018-09-19T21:58:23.998Z,101149.83
2018-09-19T22:00:57.426Z,101150.23
2018-09-19T22:03:25.549Z,101150.72
2018-09-19T22:05:53.656Z,101156.48
2018-09-19T22:08:21.809Z,101151.54
2018-09-19T22:10:49.923Z,101152.77
2018-09-19T22:13:18.114Z,101143.97
2018-09-19T22:15:46.289Z,101142.61
2018-09-19T22:18:14.438Z,101144.55
2018-09-19T22:20:42.588Z,101143.36
2018-09-19T22:23:10.858Z,101136.55
2018-09-19T22:25:39.016Z,101144.22
2018-09-19T22:28:07.126Z,101138.66
2018-09-19T22:30:35.257Z,101134.43
2018-09-19T22:33:03.557Z,101140.22
2018-09-19T22:35:31.689Z,101137.31
2018-09-19T22:37:59.839Z,101138.28
2018-09-19T22:40:28.017Z,101140.58
2018-09-19T22:42:56.189Z,101142.28
2018-09-19T22:45:24.325Z,101143.25
2018-09-19T22:47:52.510Z,101144.94
2018-09-19T22:50:20.672Z,101143.56
2018-09-19T22:52:48.816Z,101141.06
2018-09-19T22:55:17.012Z,101143.17
2018-09-19T22:57:45.158Z,101135.09
2018-09-19T23:00:13.284Z,101141.16
2018-09-19T23:02:41.466Z,101136.94
2018-09-19T23:05:09.596Z,101134.86
2018-09-19T23:07:37.725Z,101130.31
2018-09-19T23:10:05.975Z,101132.83
2018-09-19T23:12:34.122Z,101129.11
2018-09-19T23:15:02.276Z,101126.48
2018-09-19T23:17:30.460Z,101131.77
2018-09-19T23:19:58.629Z,101127.63
2018-09-19T23:22:26.768Z,101126.23
2018-09-19T23:24:55.036Z,101131.41
2018-09-19T23:27:23.268Z,101139.80
2018-09-19T23:29:51.478Z,101131.12
2018-09-19T23:32:19.649Z,101129.79
2018-09-19T23:34:47.818Z,101128.44
2018-09-19T23:37:15.985Z,101124.77
2018-09-19T23:39:44.155Z,101127.88
2018-09-19T23:42:12.339Z,101130.95
2018-09-19T23:44:40.498Z,101128.16
2018-09-19T23:47:08.643Z,101127.19
2018-09-19T23:49:36.794Z,101129.98
2018-09-19T23:52:05.037Z,101125.02
2018-09-19T23:54:33.183Z,101119.31
2018-09-19T23:57:01.322Z,101121.81
2018-09-19T23:59:29.460Z,101125.48
